• Join FlightAware (Why Join?)
  • Login
  • US Flag 
03:07AM EDT


 

Airport Tracker/Info


-or-


 

Live Flight TrackerFlight Track Log ✈ 9Y-BGI ✈ 10-Apr-2013 ✈ MKJP / KIN - KFLL

Flight Track Log - Related Links

Times and Time Zones

All times are in EDT time to prevent confusion due to time zone crossing. See the 9Y-BGI flight status page for this flight to view local times or setup timezone preferences in your user account.

Time Position Orientation Groundspeed Altitude Reporting Facility
EDT Latitude Longitude Course Direction KTS MPH feet Rate Location/Type
07:42PM 18.4397 -76.8506 353° North  Level FlightAware Approximate
07:43PM 18.5405 -76.8632 353° North  Level FlightAware Approximate
07:44PM 18.6413 -76.8759 353° North  Level FlightAware Approximate
07:45PM 18.7421 -76.8886 353° North  Level FlightAware Approximate
07:46PM 18.8428 -76.9013 353° North  Level FlightAware Approximate
07:47PM 18.9436 -76.9140 353° North  Level FlightAware Approximate
07:48PM 19.0444 -76.9267 353° North  Level FlightAware Approximate
07:49PM 19.1452 -76.9395 353° North  Level FlightAware Approximate
07:50PM 19.2460 -76.9522 353° North  Level FlightAware Approximate
07:51PM 19.3468 -76.9650 353° North  Level FlightAware Approximate
07:52PM 19.4476 -76.9778 353° North  Level FlightAware Approximate
07:53PM 19.5484 -76.9906 353° North  Level FlightAware Approximate
07:54PM 19.6492 -77.0035 353° North  Level FlightAware Approximate
07:55PM 19.7500 -77.0163 353° North  Level FlightAware Approximate
07:56PM 19.8507 -77.0292 353° North  Level FlightAware Approximate
07:57PM 19.9305 -77.0380 355° North  Level FlightAware Approximate
07:58PM 20.0316 -77.0481 355° North  Level FlightAware Approximate
07:59PM 20.1326 -77.0582 355° North  Level FlightAware Approximate
08:00PM 20.2337 -77.0683 355° North  Level FlightAware Approximate
08:01PM 20.3347 -77.0785 355° North  Level FlightAware Approximate
08:02PM 20.4354 -77.0920 351° North  Level FlightAware Approximate
08:03PM 20.5357 -77.1087 351° North  Level FlightAware Approximate
08:04PM 20.6363 -77.1233 353° North  Level FlightAware Approximate
08:05PM 20.7371 -77.1358 353° North  Level FlightAware Approximate
08:06PM 20.8379 -77.1484 353° North  Level FlightAware Approximate
08:07PM 20.9388 -77.1610 353° North  Level FlightAware Approximate
08:08PM 21.0396 -77.1736 353° North  Level FlightAware Approximate
08:09PM 21.1404 -77.1862 353° North  Level FlightAware Approximate
08:10PM 21.2412 -77.1988 353° North  Level FlightAware Approximate
08:11PM 21.3421 -77.2115 353° North  Level FlightAware Approximate
08:12PM 21.4384 -77.2421 337° Northwest  Level FlightAware Approximate
08:13PM 21.5317 -77.2852 337° Northwest  Level FlightAware Approximate
08:14PM 21.6249 -77.3284 337° Northwest  Level FlightAware Approximate
08:15PM 21.7181 -77.3716 337° Northwest  Level FlightAware Approximate
08:16PM 21.8113 -77.4149 337° Northwest  Level FlightAware Approximate
08:17PM 21.9045 -77.4583 337° Northwest  Level FlightAware Approximate
08:18PM 21.9977 -77.5017 337° Northwest  Level FlightAware Approximate
08:19PM 22.0909 -77.5451 337° Northwest  Level FlightAware Approximate
08:20PM 22.1840 -77.5887 337° Northwest  Level FlightAware Approximate
08:21PM 22.2772 -77.6322 337° Northwest  Level FlightAware Approximate
08:22PM 22.3703 -77.6758 337° Northwest  Level FlightAware Approximate
08:23PM 22.4634 -77.7195 337° Northwest  Level FlightAware Approximate
08:24PM 22.5566 -77.7633 337° Northwest  Level FlightAware Approximate
08:25PM 22.6497 -77.8071 337° Northwest  Level FlightAware Approximate
08:26PM 22.7342 -77.8633 329° Northwest  Level Estimated
08:27PM 22.8186 -77.9195 328° Northwest  Level Estimated
08:28PM 22.9031 -77.9757 328° Northwest  Level Estimated
08:29PM 22.9875 -78.0321 328° Northwest  Level Estimated
08:30PM 23.0720 -78.0885 328° Northwest  Level Estimated
08:30PM 23.2189 -78.2742 328° Northwest 460 529 36,000  Level Miami Center
08:31PM 23.1564 -78.1450 328° Northwest  Level Estimated
08:31PM 23.3272 -78.3069 344° North 430 495 36,000  Level Miami Center
08:32PM 23.2407 -78.2016 328° Northwest  Level Estimated
08:32PM 23.4378 -78.3331 348° North 412 474 36,000  Level Miami Center
08:33PM 23.3251 -78.2582 328° Northwest  Level Estimated
08:33PM 23.5442 -78.3547 349° North 393 452 36,000  Level Miami Center
08:34PM 23.4094 -78.3149 328° Northwest  Level Estimated
08:34PM 23.6547 -78.3811 348° North 393 452 36,000  Level Miami Center
08:35PM 23.4938 -78.3717 328° Northwest  Level Estimated
08:35PM 23.7631 -78.4050 349° North 393 452 36,000  Level Miami Center
08:36PM 23.8756 -78.4358 346° North 393 452 36,000  Level Miami Center
08:37PM 23.9797 -78.4692 344° North 393 452 36,000  Level Miami Center
08:38PM 24.0897 -78.5206 337° Northwest 388 447 36,000  Level Miami Center
08:39PM 24.1875 -78.5675 336° Northwest 388 447 36,000  Level Miami Center
08:40PM 24.2853 -78.6142 336° Northwest 381 438 36,000  Level Miami Center
08:41PM 24.3850 -78.6614 337° Northwest 381 438 36,000  Level Miami Center
08:42PM 24.4825 -78.7061 337° Northwest 381 438 36,000  Level Miami Center
08:43PM 24.5864 -78.7581 336° Northwest 381 438 36,000  Level Miami Center
08:44PM 24.6800 -78.8028 337° Northwest 381 438 36,000 -60 Level Miami Center
08:45PM 24.7817 -78.8525 336° Northwest 381 438 35,900 -1,560 Descending Miami Center
08:46PM 24.8728 -78.9019 334° Northwest 374 430 32,900 -3,960 Descending Miami Center
08:47PM 24.9681 -78.9656 329° Northwest 382 440 28,000 -3,840 Descending Miami Center
08:48PM 25.0633 -79.0383 325° Northwest 406 467 25,300 -2,640 Descending Miami Center
08:49PM 25.1561 -79.1086 326° Northwest 413 475 22,800 -2,580 Descending Miami Center
08:50PM 25.2514 -79.1747 328° Northwest 413 475 20,200 -2,520 Descending Miami Center
08:51PM 25.3419 -79.2478 324° Northwest 408 470 17,800 -2,460 Descending Miami Center
08:52PM 25.4328 -79.3139 327° Northwest 396 456 15,300 -2,520 Descending Miami Center
08:53PM 25.5175 -79.3825 324° Northwest 390 449 12,800 -2,400 Descending Miami Center
08:54PM 25.6061 -79.4467 327° Northwest 385 443 10,500 -1,500 Descending Miami Center
08:55PM 25.6867 -79.5058 327° Northwest 367 422 9,900 -720 Descending Miami Center
08:56PM 25.7194 -79.5367 320° Northwest 309 356 9,400 -1,320 Descending Miami Center
08:56PM 25.7567 -79.5583 332° Northwest 342 394 8,600 -1,980 Descending Miami Center
08:57PM 25.7792 -79.5819 317° Northwest 302 348 7,800 -1,920 Descending Miami Center
08:57PM 25.8267 -79.6128 330° Northwest 315 362 6,700 -1,560 Descending Miami Center
08:58PM 25.8492 -79.6411 311° West 286 329 6,100 -720 Descending Miami Center
08:58PM 25.8714 -79.6786 303° West 276 318 6,000 -120 Descending Miami Center
08:59PM 25.8831 -79.7181 288° West 284 327 6,000  Level Miami Center
08:59PM 25.9075 -79.7581 304° West 287 330 6,000  Level Miami Center
09:00PM 25.9172 -79.7928 287° West 283 326 6,000  Level Miami Center
09:00PM 25.9392 -79.8394 298° West 287 330 6,000  Level Miami Center
09:01PM 25.9489 -79.8722 288° West 285 328 6,000  Level Miami Center
09:01PM 25.9753 -79.9167 303° West 287 330 6,000  Level Miami Center
09:02PM 25.9831 -79.9492 285° West 285 328 6,000  Level Miami Center
09:02PM 26.0133 -79.9917 308° West 282 325 6,000  Level Miami Center
09:03PM 26.0544 -80.0275 322° Northwest 261 300 6,000  Level Miami Center
09:03PM 26.0728 -80.0394 330° Northwest 266 306 6,000  Level Miami Center
09:04PM 26.0994 -80.0633 321° Northwest 237 273 6,000  Level Miami Center
09:04PM 26.1283 -80.0803 332° Northwest 252 290 6,000 -120 Level Miami Center
09:05PM 26.1467 -80.1064 308° West 241 277 5,900 -840 Descending Miami Center
09:05PM 26.1583 -80.1414 290° West 228 262 5,200 -1,260 Descending Miami Center
09:06PM 26.1531 -80.1967 264° West 243 280 4,400 -1,020 Descending Miami Center
09:07PM 26.1558 -80.2500 273° West 242 278 3,800 -600 Descending Miami Center
09:08PM 26.1600 -80.3381 273° West 207 238 3,200 -720 Descending Miami Center
09:09PM 26.1292 -80.3256 160° South 158 182 2,200 -960 Descending Miami Center
09:10PM 26.1300 -80.2839 89° East 161 185 1,500 -420 Descending Miami Center
09:11PM 26.1375 -80.2356 80° East 155 178 1,500 -240 Level Miami Center
09:12PM 26.1111 -80.2025 132° Southeast 135 155 1,100 -420 Descending Miami Center
09:14PM 26.0667 -80.1500 77° East  Level FlightAware Approximate
09:21PM 26.0726 -80.1527 77° East  Level Estimated